Time;durP1;ratioP1;P1;durP2;ratioP2;P2;SDS_P1;SDS_P2;PMS_P1;PMS_P2;Temp;Humidity;BMP_temperature;BMP_pressure;BME280_temperature;BME280_humidity;BME280_pressure;Samples;Min_cycle;Max_cycle;Signal;HPM_P1;HPM_P2
2022/09/06 00:01:51;;;;;;;7.20;4.05;;;21.30;73.00;;;;;;5137352;27;20082;-46
2022/09/06 00:04:18;;;;;;;11.27;4.30;;;21.30;73.10;;;;;;5113323;27;20095;-46
2022/09/06 00:06:45;;;;;;;5.47;4.22;;;21.30;73.30;;;;;;5140319;27;20126;-46
2022/09/06 00:09:12;;;;;;;8.00;3.92;;;21.20;73.40;;;;;;5140298;27;20706;-47
2022/09/06 00:11:38;;;;;;;10.27;4.35;;;21.20;73.50;;;;;;5135640;27;20437;-44
2022/09/06 00:14:05;;;;;;;6.57;4.35;;;21.20;73.80;;;;;;5130225;27;20403;-46
2022/09/06 00:16:33;;;;;;;11.40;3.95;;;21.20;73.90;;;;;;5148297;27;20074;-41
2022/09/06 00:19:00;;;;;;;8.32;3.58;;;21.10;73.40;;;;;;5125075;27;20146;-43
2022/09/06 00:21:29;;;;;;;9.07;4.32;;;21.10;73.40;;;;;;5144524;27;20142;-43
2022/09/06 00:23:55;;;;;;;9.98;4.25;;;21.10;73.50;;;;;;5130994;27;20377;-46
2022/09/06 00:26:22;;;;;;;11.68;3.95;;;21.00;74.00;;;;;;5146795;27;20122;-49
2022/09/06 00:28:49;;;;;;;5.50;3.97;;;21.00;73.90;;;;;;5116617;27;20062;-46
2022/09/06 00:31:17;;;;;;;4.80;3.83;;;21.00;73.70;;;;;;5132712;27;20043;-45
2022/09/06 00:33:45;;;;;;;6.63;4.03;;;21.00;74.00;;;;;;5119321;27;20554;-46
2022/09/06 00:36:12;;;;;;;8.98;3.90;;;21.00;74.50;;;;;;5124395;27;20047;-48
2022/09/06 00:38:39;;;;;;;11.82;4.05;;;20.90;74.60;;;;;;5149514;27;20067;-44
2022/09/06 00:41:06;;;;;;;5.43;3.92;;;20.90;74.80;;;;;;5117613;27;20051;-39
2022/09/06 00:43:33;;;;;;;8.23;4.15;;;20.80;74.20;;;;;;5118098;27;20139;-44
2022/09/06 00:46:00;;;;;;;5.10;3.70;;;20.80;74.20;;;;;;5136444;27;20086;-42
2022/09/06 00:48:27;;;;;;;6.95;4.32;;;20.80;74.10;;;;;;5150494;27;20123;-44
2022/09/06 00:50:56;;;;;;;6.43;3.42;;;20.80;74.40;;;;;;5128234;27;20051;-45
2022/09/06 00:53:23;;;;;;;9.88;3.83;;;20.80;74.50;;;;;;5110696;27;20478;-47
2022/09/06 00:55:49;;;;;;;5.75;4.05;;;20.80;74.60;;;;;;5149552;27;20394;-46
2022/09/06 00:58:16;;;;;;;7.93;4.13;;;20.70;75.20;;;;;;5135637;27;20042;-47
2022/09/06 01:00:43;;;;;;;5.05;3.40;;;20.70;74.90;;;;;;5144005;27;20122;-44
2022/09/06 01:03:10;;;;;;;7.85;4.10;;;20.70;74.70;;;;;;5123809;27;20041;-47
2022/09/06 01:05:42;;;;;;;7.65;3.65;;;20.60;74.80;;;;;;5123759;27;20088;-43
2022/09/06 01:08:13;;;;;;;7.40;4.00;;;20.60;75.10;;;;;;5121863;27;20057;-47
2022/09/06 01:10:52;;;;;;;9.40;4.18;;;20.60;75.30;;;;;;5129590;27;20134;-45
2022/09/06 01:13:28;;;;;;;6.22;4.53;;;20.60;75.20;;;;;;5132794;27;20114;-43
2022/09/06 01:15:59;;;;;;;7.25;3.92;;;20.50;75.30;;;;;;5136943;27;20051;-46
2022/09/06 01:18:32;;;;;;;8.27;3.78;;;20.50;75.30;;;;;;5134480;27;20139;-45
2022/09/06 01:21:13;;;;;;;7.03;3.83;;;20.50;75.20;;;;;;5116157;27;20047;-46
2022/09/06 01:24:16;;;;;;;6.82;3.60;;;20.50;75.30;;;;;;5125822;27;20043;-45
2022/09/06 01:27:12;;;;;;;5.45;3.97;;;20.50;74.40;;;;;;5104995;27;20390;-44
2022/09/06 01:29:44;;;;;;;8.13;3.67;;;20.40;74.90;;;;;;5114534;28;20127;-46
2022/09/06 01:32:14;;;;;;;7.43;4.00;;;20.40;75.20;;;;;;5107717;27;20137;-44
2022/09/06 01:34:44;;;;;;;6.03;3.97;;;20.40;75.20;;;;;;5119473;27;20051;-43
2022/09/06 01:37:12;;;;;;;4.43;3.83;;;20.40;75.10;;;;;;5106009;27;20130;-47
2022/09/06 01:39:39;;;;;;;5.47;4.13;;;20.40;74.90;;;;;;5116915;27;20053;-46
2022/09/06 01:42:08;;;;;;;7.72;4.50;;;20.40;75.20;;;;;;5115437;27;20057;-44
2022/09/06 01:44:34;;;;;;;6.32;4.10;;;20.40;75.50;;;;;;5137857;27;20135;-47
2022/09/06 01:47:07;;;;;;;5.93;4.28;;;20.40;75.10;;;;;;5141829;27;20135;-47
2022/09/06 01:49:40;;;;;;;5.28;4.25;;;20.40;75.60;;;;;;5136156;27;20047;-44
2022/09/06 01:52:11;;;;;;;8.00;4.80;;;20.40;75.70;;;;;;5103309;27;20066;-46
2022/09/06 01:54:46;;;;;;;6.03;4.25;;;20.40;76.10;;;;;;5141947;27;20470;-46
2022/09/06 01:57:20;;;;;;;14.23;4.50;;;20.40;75.80;;;;;;5134018;27;20046;-43
2022/09/06 01:59:55;;;;;;;6.38;4.80;;;20.30;76.00;;;;;;5132988;27;20046;-45
2022/09/06 02:02:25;;;;;;;8.40;4.22;;;20.40;76.40;;;;;;5146296;27;20083;-45
2022/09/06 02:04:54;;;;;;;7.82;4.40;;;20.40;76.40;;;;;;5140351;27;20042;-43
2022/09/06 02:07:23;;;;;;;5.75;3.92;;;20.30;76.50;;;;;;5122578;27;20055;-44
2022/09/06 02:09:53;;;;;;;5.75;4.15;;;20.30;76.80;;;;;;5114080;28;20087;-41
2022/09/06 02:12:20;;;;;;;12.18;4.90;;;20.30;76.60;;;;;;5128339;27;20043;-42
2022/09/06 02:14:49;;;;;;;5.38;4.30;;;20.30;77.50;;;;;;5135960;27;20043;-44
2022/09/06 02:17:19;;;;;;;5.18;4.00;;;20.20;77.50;;;;;;5152860;27;20533;-43
2022/09/06 02:19:48;;;;;;;5.65;4.53;;;20.20;77.20;;;;;;5136703;27;20054;-44
2022/09/06 02:22:16;;;;;;;8.27;4.35;;;20.20;77.00;;;;;;5139516;27;20086;-42
2022/09/06 02:24:43;;;;;;;7.78;4.00;;;20.20;76.70;;;;;;5133542;27;20066;-43
2022/09/06 02:27:10;;;;;;;5.97;4.15;;;20.20;76.90;;;;;;5136633;27;20081;-45
2022/09/06 02:29:37;;;;;;;9.52;4.45;;;20.20;76.70;;;;;;5146317;27;20467;-43
2022/09/06 02:32:05;;;;;;;5.68;4.13;;;20.20;76.80;;;;;;5134370;27;20450;-46
2022/09/06 02:34:31;;;;;;;6.50;4.20;;;20.20;76.60;;;;;;5137065;27;20557;-46
2022/09/06 02:36:59;;;;;;;13.00;4.65;;;20.20;76.40;;;;;;5136745;27;20043;-45
2022/09/06 02:39:26;;;;;;;7.88;4.43;;;20.20;76.40;;;;;;5132319;27;20057;-43
2022/09/06 02:41:53;;;;;;;7.70;4.40;;;20.20;77.00;;;;;;5113589;27;20433;-44
2022/09/06 02:44:20;;;;;;;6.95;4.80;;;20.10;77.10;;;;;;5099946;27;20047;-45
2022/09/06 02:46:47;;;;;;;7.68;4.60;;;20.10;76.90;;;;;;5142831;27;20095;-44
2022/09/06 02:49:13;;;;;;;10.52;4.97;;;20.10;76.90;;;;;;5134301;27;20131;-43
2022/09/06 02:51:40;;;;;;;7.60;5.43;;;20.10;77.10;;;;;;5126111;27;20058;-46
2022/09/06 02:54:08;;;;;;;6.93;5.32;;;20.00;77.70;;;;;;5130427;27;20134;-44
2022/09/06 02:56:35;;;;;;;6.47;4.50;;;20.00;78.10;;;;;;5132624;27;20079;-46
2022/09/06 02:59:03;;;;;;;6.07;4.28;;;20.00;77.60;;;;;;5152070;27;20069;-46
2022/09/06 03:01:30;;;;;;;6.85;4.78;;;20.00;77.30;;;;;;5143680;27;20071;-42
2022/09/06 03:03:56;;;;;;;9.40;4.78;;;20.00;77.40;;;;;;5124024;27;20117;-44
2022/09/06 03:06:23;;;;;;;7.85;5.07;;;20.00;77.60;;;;;;5117190;27;20122;-42
2022/09/06 03:08:50;;;;;;;5.68;4.10;;;20.00;78.00;;;;;;5121736;27;20126;-43
2022/09/06 03:11:18;;;;;;;6.50;4.93;;;20.00;78.00;;;;;;5124693;27;20064;-41
2022/09/06 03:13:45;;;;;;;7.28;5.30;;;20.00;78.10;;;;;;5124339;28;20051;-47
2022/09/06 03:16:12;;;;;;;6.53;4.28;;;20.00;78.40;;;;;;5142552;27;20125;-45
2022/09/06 03:18:38;;;;;;;7.15;4.68;;;19.90;77.90;;;;;;5140505;27;20035;-44
2022/09/06 03:21:06;;;;;;;12.85;5.13;;;19.90;78.70;;;;;;5126927;27;20085;-41
2022/09/06 03:23:33;;;;;;;9.20;4.88;;;19.90;78.30;;;;;;5135686;27;20126;-46
2022/09/06 03:25:59;;;;;;;7.47;5.45;;;19.90;78.60;;;;;;5134561;27;20046;-43
2022/09/06 03:28:27;;;;;;;7.90;5.28;;;19.90;78.80;;;;;;5129955;27;20126;-42
2022/09/06 03:30:54;;;;;;;15.80;5.47;;;19.80;78.80;;;;;;5102990;28;20134;-44
2022/09/06 03:33:21;;;;;;;11.38;5.35;;;19.90;79.20;;;;;;5129940;27;20074;-44
2022/09/06 03:35:48;;;;;;;9.25;5.57;;;19.80;79.30;;;;;;5112190;28;20108;-42
2022/09/06 03:38:15;;;;;;;10.82;5.60;;;19.80;79.70;;;;;;5127972;27;20141;-40
2022/09/06 03:40:44;;;;;;;12.52;5.47;;;19.80;79.80;;;;;;5118646;27;20058;-41
2022/09/06 03:43:11;;;;;;;6.55;5.63;;;19.80;79.50;;;;;;5126525;27;20537;-44
2022/09/06 03:45:39;;;;;;;6.65;4.88;;;19.80;79.90;;;;;;5134478;27;20488;-41
2022/09/06 03:48:06;;;;;;;6.28;5.07;;;19.80;80.00;;;;;;5108141;28;20123;-44
2022/09/06 03:50:33;;;;;;;9.40;6.10;;;19.80;80.20;;;;;;5118812;27;20440;-45
2022/09/06 03:52:59;;;;;;;6.30;5.32;;;19.80;80.40;;;;;;5141689;27;20125;-46
2022/09/06 03:55:26;;;;;;;8.95;5.15;;;19.80;80.30;;;;;;5128757;27;20070;-42
2022/09/06 03:57:53;;;;;;;11.10;6.45;;;19.70;80.50;;;;;;5118493;28;20047;-40
2022/09/06 04:00:19;;;;;;;9.63;5.93;;;19.70;80.90;;;;;;5133125;27;20127;-43
2022/09/06 04:02:48;;;;;;;7.43;5.63;;;19.70;81.10;;;;;;5105665;28;20108;-38
2022/09/06 04:05:15;;;;;;;7.05;5.53;;;19.70;81.10;;;;;;5130072;27;20091;-43
2022/09/06 04:07:42;;;;;;;7.93;5.80;;;19.70;80.90;;;;;;5134086;27;20107;-44
2022/09/06 04:10:10;;;;;;;7.43;6.40;;;19.70;81.70;;;;;;5131805;27;20118;-46
2022/09/06 04:12:36;;;;;;;6.47;5.30;;;19.70;81.70;;;;;;5118236;28;20423;-44
2022/09/06 04:15:04;;;;;;;8.93;6.55;;;19.70;82.00;;;;;;5131408;27;20505;-46
2022/09/06 04:17:30;;;;;;;8.68;6.47;;;19.70;82.50;;;;;;5112746;27;20432;-45
2022/09/06 04:19:58;;;;;;;11.70;6.03;;;19.60;83.50;;;;;;5115533;28;20055;-44
2022/09/06 04:22:25;;;;;;;7.30;5.75;;;19.60;83.60;;;;;;5136007;27;20494;-48
2022/09/06 04:24:52;;;;;;;9.20;5.07;;;19.60;83.40;;;;;;5151357;27;20061;-48
2022/09/06 04:27:19;;;;;;;8.93;6.47;;;19.60;82.70;;;;;;5127601;27;20130;-47
2022/09/06 04:29:45;;;;;;;10.15;6.50;;;19.60;83.40;;;;;;5152668;27;20126;-38
2022/09/06 04:32:12;;;;;;;8.68;5.72;;;19.60;84.60;;;;;;5135812;27;20077;-43
2022/09/06 04:34:39;;;;;;;8.38;6.38;;;19.60;84.80;;;;;;5147951;27;20390;-48
2022/09/06 04:37:07;;;;;;;12.60;6.97;;;19.60;84.40;;;;;;5146735;27;20470;-46
2022/09/06 04:39:34;;;;;;;8.27;5.90;;;19.60;85.00;;;;;;5137810;27;20078;-47
2022/09/06 04:42:00;;;;;;;7.43;6.07;;;19.50;85.40;;;;;;5126878;27;20078;-49
2022/09/06 04:44:27;;;;;;;9.73;7.38;;;19.50;85.80;;;;;;5137619;27;20087;-50
2022/09/06 04:47:03;;;;;;;10.30;6.70;;;19.50;86.60;;;;;;5133676;27;20474;-55
2022/09/06 04:49:30;;;;;;;11.02;7.20;;;19.50;87.00;;;;;;5117393;27;20092;-57
2022/09/06 04:51:56;;;;;;;11.93;7.40;;;19.50;88.70;;;;;;5136159;27;20385;-62
2022/09/06 04:54:25;;;;;;;11.98;7.13;;;19.40;89.20;;;;;;5119048;27;20651;-59
2022/09/06 04:56:51;;;;;;;11.05;7.25;;;19.40;89.70;;;;;;5131145;27;20100;-57
2022/09/06 04:59:18;;;;;;;7.32;5.82;;;19.30;89.60;;;;;;5136013;27;20551;-55
2022/09/06 05:01:45;;;;;;;8.60;6.15;;;19.30;89.00;;;;;;5117672;27;20074;-57
2022/09/06 05:04:12;;;;;;;11.23;7.32;;;19.30;89.10;;;;;;5135954;27;20067;-54
2022/09/06 05:06:40;;;;;;;8.30;6.70;;;19.30;90.10;;;;;;5150268;27;20078;-55
2022/09/06 05:09:07;;;;;;;11.27;6.57;;;19.30;90.60;;;;;;5118161;27;20082;-51
2022/09/06 05:11:35;;;;;;;10.07;7.78;;;19.30;90.50;;;;;;5129629;27;20042;-56
2022/09/06 05:14:02;;;;;;;8.38;7.40;;;19.30;90.80;;;;;;5155191;27;20134;-56
2022/09/06 05:16:28;;;;;;;9.50;7.53;;;19.30;90.70;;;;;;5126310;27;20042;-57
2022/09/06 05:18:55;;;;;;;12.88;8.45;;;19.30;91.10;;;;;;5129351;27;20118;-55
2022/09/06 05:21:22;;;;;;;8.43;7.32;;;19.20;91.10;;;;;;5116303;27;20115;-45
2022/09/06 05:23:49;;;;;;;11.25;8.05;;;19.30;91.30;;;;;;5114582;27;20054;-57
2022/09/06 05:26:16;;;;;;;12.73;8.32;;;19.20;91.50;;;;;;5146124;27;20114;-53
2022/09/06 05:28:44;;;;;;;10.90;8.80;;;19.30;91.90;;;;;;5151019;27;20421;-56
2022/09/06 05:31:11;;;;;;;11.30;7.50;;;19.30;92.00;;;;;;5134340;27;20126;-54
2022/09/06 05:33:38;;;;;;;7.55;6.75;;;19.20;92.20;;;;;;5134259;27;20138;-57
2022/09/06 05:36:06;;;;;;;14.02;7.38;;;19.20;91.90;;;;;;5104345;27;20079;-58
2022/09/06 05:38:32;;;;;;;12.27;9.25;;;19.20;91.80;;;;;;5121010;27;20129;-57
2022/09/06 05:40:59;;;;;;;10.27;8.63;;;19.20;92.40;;;;;;5119793;27;20135;-46
2022/09/06 05:43:26;;;;;;;10.70;8.77;;;19.10;92.70;;;;;;5117676;27;20042;-54
2022/09/06 05:45:54;;;;;;;10.50;8.55;;;19.10;93.00;;;;;;5134681;27;20137;-57
2022/09/06 05:48:21;;;;;;;10.48;9.32;;;19.10;93.10;;;;;;5120069;27;20043;-53
2022/09/06 05:50:47;;;;;;;8.40;7.28;;;19.00;93.50;;;;;;5129828;27;20094;-58
2022/09/06 05:53:14;;;;;;;11.38;9.32;;;19.00;93.20;;;;;;5142190;27;20132;-58
2022/09/06 05:55:41;;;;;;;13.23;9.52;;;19.00;93.70;;;;;;5130421;27;20039;-56
2022/09/06 05:58:08;;;;;;;15.13;10.75;;;19.00;93.90;;;;;;5114821;27;20103;-53
2022/09/06 06:00:34;;;;;;;13.13;9.50;;;18.90;94.30;;;;;;5137416;27;20125;-56
2022/09/06 06:03:02;;;;;;;10.30;9.30;;;18.90;94.50;;;;;;5131643;27;20082;-49
2022/09/06 06:05:29;;;;;;;11.77;10.27;;;18.80;94.80;;;;;;5123741;27;20047;-56
2022/09/06 06:07:58;;;;;;;10.10;8.98;;;18.80;94.90;;;;;;5122833;27;20077;-55
2022/09/06 06:10:25;;;;;;;10.88;9.85;;;18.80;94.90;;;;;;5108710;27;20051;-46
2022/09/06 06:12:51;;;;;;;13.93;9.40;;;18.80;95.10;;;;;;5127167;27;20074;-47
2022/09/06 06:15:18;;;;;;;15.02;10.90;;;18.80;95.30;;;;;;5130045;27;20079;-53
2022/09/06 06:17:45;;;;;;;14.95;10.65;;;18.80;95.60;;;;;;5126094;27;20142;-46
2022/09/06 06:20:13;;;;;;;11.82;9.68;;;18.80;95.80;;;;;;5124262;27;20074;-48
2022/09/06 06:22:40;;;;;;;11.40;10.20;;;18.80;95.80;;;;;;5131013;27;20382;-46
2022/09/06 06:25:07;;;;;;;13.90;9.80;;;18.80;96.10;;;;;;5112097;27;20471;-47
2022/09/06 06:27:35;;;;;;;13.43;10.25;;;18.80;96.10;;;;;;5141797;27;20082;-50
2022/09/06 06:30:03;;;;;;;13.88;10.35;;;18.80;96.00;;;;;;5122945;27;20054;-47
2022/09/06 06:32:30;;;;;;;13.50;10.30;;;18.80;96.00;;;;;;5118592;27;20051;-43
2022/09/06 06:34:57;;;;;;;15.73;11.10;;;18.80;96.00;;;;;;5127857;27;20051;-36
2022/09/06 06:37:25;;;;;;;12.65;9.75;;;18.90;96.30;;;;;;5120859;27;20061;-49
2022/09/06 06:39:52;;;;;;;12.13;10.80;;;18.80;96.30;;;;;;5136755;27;20047;-39
2022/09/06 06:42:19;;;;;;;15.63;11.13;;;18.90;96.50;;;;;;5126327;27;20110;-44
2022/09/06 06:44:45;;;;;;;11.13;9.63;;;18.90;96.60;;;;;;5131476;27;20129;-46
2022/09/06 06:47:13;;;;;;;15.23;11.65;;;18.90;96.40;;;;;;5111972;28;20504;-47
2022/09/06 06:49:39;;;;;;;18.05;11.20;;;18.80;96.80;;;;;;5111588;28;20036;-48
2022/09/06 06:52:06;;;;;;;13.35;11.90;;;18.90;97.00;;;;;;5094809;28;20043;-49
2022/09/06 06:54:36;;;;;;;18.63;11.77;;;18.90;97.10;;;;;;5112497;28;20043;-49
2022/09/06 06:57:03;;;;;;;13.23;10.63;;;18.90;97.40;;;;;;5113793;27;20493;-43
2022/09/06 06:59:29;;;;;;;13.52;11.15;;;19.00;97.30;;;;;;5115179;28;20039;-41
2022/09/06 07:01:57;;;;;;;14.15;11.73;;;18.90;97.50;;;;;;5103546;28;20477;-44
2022/09/06 07:04:24;;;;;;;13.75;11.10;;;19.00;97.60;;;;;;5119706;27;20477;-48
2022/09/06 07:06:51;;;;;;;14.05;11.73;;;19.00;97.80;;;;;;5112689;28;20047;-44
2022/09/06 07:09:18;;;;;;;12.57;11.20;;;19.10;97.90;;;;;;5110010;28;20481;-43
2022/09/06 07:11:47;;;;;;;15.77;11.48;;;19.10;97.90;;;;;;5128860;28;20474;-45
2022/09/06 07:14:14;;;;;;;17.77;12.60;;;19.20;97.90;;;;;;5128151;28;20458;-44
2022/09/06 07:16:41;;;;;;;16.27;13.30;;;19.30;97.90;;;;;;5093478;28;20120;-42
2022/09/06 07:19:08;;;;;;;16.88;12.63;;;19.40;98.20;;;;;;5127201;28;20424;-48
2022/09/06 07:21:34;;;;;;;16.45;12.98;;;19.50;98.30;;;;;;5105480;28;20101;-45
2022/09/06 07:24:01;;;;;;;13.93;12.40;;;19.60;98.10;;;;;;5106099;28;20130;-45
2022/09/06 07:26:29;;;;;;;16.73;11.77;;;19.80;98.10;;;;;;5131704;28;20135;-44
2022/09/06 07:28:58;;;;;;;17.73;12.00;;;19.90;97.80;;;;;;5112488;28;20075;-43
2022/09/06 07:31:25;;;;;;;13.60;11.63;;;20.00;97.70;;;;;;5116099;28;20661;-44
2022/09/06 07:33:52;;;;;;;13.82;12.43;;;20.20;97.60;;;;;;5114522;28;20104;-44
2022/09/06 07:36:19;;;;;;;12.65;10.95;;;20.40;97.40;;;;;;5106122;28;20067;-46
2022/09/06 07:38:48;;;;;;;14.13;11.85;;;20.50;97.30;;;;;;5132457;28;20130;-40
2022/09/06 07:41:16;;;;;;;16.20;11.30;;;20.70;97.00;;;;;;5125286;28;20423;-46
2022/09/06 07:43:42;;;;;;;18.42;12.05;;;20.80;96.90;;;;;;5112131;28;20054;-42
2022/09/06 07:46:12;;;;;;;12.35;11.02;;;21.00;96.70;;;;;;5111756;28;20068;-47
2022/09/06 07:48:39;;;;;;;12.27;10.90;;;21.20;96.60;;;;;;5093602;28;20444;-41
2022/09/06 07:51:07;;;;;;;12.07;10.85;;;21.30;96.10;;;;;;5111491;28;20549;-45
2022/09/06 07:53:34;;;;;;;15.05;12.13;;;21.40;95.90;;;;;;5111518;28;20048;-42
2022/09/06 07:56:01;;;;;;;13.98;11.40;;;21.50;95.60;;;;;;5111479;28;20134;-38
2022/09/06 07:58:28;;;;;;;13.10;10.30;;;21.60;95.40;;;;;;5111949;28;20481;-43
2022/09/06 08:00:55;;;;;;;14.52;10.65;;;21.70;95.30;;;;;;5114818;28;20048;-39
2022/09/06 08:03:23;;;;;;;12.52;9.52;;;21.80;95.40;;;;;;5116446;27;20052;-44
2022/09/06 08:05:50;;;;;;;14.65;10.25;;;22.00;95.10;;;;;;5129361;27;20055;-41
2022/09/06 08:08:17;;;;;;;11.68;10.32;;;22.20;94.50;;;;;;5121694;27;20043;-42
2022/09/06 08:10:43;;;;;;;18.23;10.32;;;22.30;94.20;;;;;;5122129;27;20082;-41
2022/09/06 08:13:10;;;;;;;11.18;10.02;;;22.40;93.90;;;;;;5097974;27;20116;-45
2022/09/06 08:15:37;;;;;;;14.00;10.10;;;22.50;93.60;;;;;;5114943;27;20447;-41
2022/09/06 08:18:04;;;;;;;12.18;9.43;;;22.60;93.30;;;;;;5106352;27;20084;-46
2022/09/06 08:20:32;;;;;;;14.38;9.45;;;22.80;93.10;;;;;;5109038;28;20071;-45
2022/09/06 08:23:00;;;;;;;13.38;9.27;;;22.90;93.10;;;;;;5095590;27;20417;-48
2022/09/06 08:25:27;;;;;;;11.93;9.63;;;23.10;93.00;;;;;;5094080;27;20205;-47
2022/09/06 08:27:54;;;;;;;13.27;9.10;;;23.40;92.70;;;;;;5115390;27;20133;-41
2022/09/06 08:30:21;;;;;;;10.80;9.40;;;23.60;92.20;;;;;;5135023;27;20473;-47
2022/09/06 08:32:48;;;;;;;12.15;9.48;;;23.70;92.00;;;;;;5125666;27;20054;-46
2022/09/06 08:35:15;;;;;;;12.98;9.40;;;23.80;91.60;;;;;;5124789;27;20075;-44
2022/09/06 08:37:43;;;;;;;10.90;9.40;;;23.90;91.50;;;;;;5116501;27;20047;-40
2022/09/06 08:40:10;;;;;;;10.02;8.88;;;24.00;91.30;;;;;;5123511;27;20078;-44
2022/09/06 08:42:38;;;;;;;11.68;9.48;;;24.00;91.10;;;;;;5135507;27;20071;-45
2022/09/06 08:45:09;;;;;;;10.98;9.10;;;24.10;90.90;;;;;;5135102;27;20467;-47
2022/09/06 08:47:36;;;;;;;10.02;9.02;;;24.10;90.90;;;;;;5135274;27;20047;-46
2022/09/06 08:50:03;;;;;;;14.68;8.45;;;24.30;90.60;;;;;;5134919;27;20053;-43
2022/09/06 08:52:57;;;;;;;12.13;9.90;;;24.40;90.50;;;;;;5121408;27;20078;-44
2022/09/06 08:55:31;;;;;;;10.80;8.93;;;24.70;90.10;;;;;;5123728;27;20047;-44
2022/09/06 08:58:05;;;;;;;11.90;9.23;;;24.90;90.10;;;;;;5133232;27;20078;-39
2022/09/06 09:00:32;;;;;;;10.82;9.38;;;25.10;88.90;;;;;;5117057;27;20514;-43
2022/09/06 09:03:04;;;;;;;11.18;8.80;;;25.30;88.00;;;;;;5115190;27;20114;-48
2022/09/06 09:05:32;;;;;;;10.55;7.95;;;25.40;87.80;;;;;;5132955;27;20132;-46
2022/09/06 09:08:05;;;;;;;8.65;7.78;;;25.40;87.00;;;;;;5130921;27;20422;-47
2022/09/06 09:10:34;;;;;;;17.15;9.32;;;25.50;87.20;;;;;;5134347;27;20450;-46
2022/09/06 09:13:02;;;;;;;8.05;7.25;;;25.60;86.30;;;;;;5115093;27;20053;-48
2022/09/06 09:15:29;;;;;;;17.15;8.82;;;25.70;85.70;;;;;;5116007;27;20082;-41
2022/09/06 09:17:55;;;;;;;12.82;7.88;;;25.90;85.50;;;;;;5116721;27;20134;-44
2022/09/06 09:20:22;;;;;;;10.90;7.20;;;26.10;84.90;;;;;;5125566;27;20078;-46
2022/09/06 09:22:49;;;;;;;10.52;7.15;;;26.10;82.60;;;;;;5116133;27;20125;-46
2022/09/06 09:25:21;;;;;;;9.63;6.68;;;26.20;82.00;;;;;;5134157;27;20538;-42
2022/09/06 09:27:56;;;;;;;7.47;6.60;;;26.30;81.20;;;;;;5124809;27;20130;-47
2022/09/06 09:30:23;;;;;;;8.20;6.78;;;26.30;81.00;;;;;;5114058;28;20126;-43
2022/09/06 09:32:50;;;;;;;6.70;6.00;;;26.40;81.40;;;;;;5115337;27;20035;-44
2022/09/06 09:35:22;;;;;;;8.82;5.53;;;26.50;79.90;;;;;;5128723;27;20522;-46
2022/09/06 09:37:56;;;;;;;10.98;5.50;;;26.60;79.10;;;;;;5113771;28;20126;-42
2022/09/06 09:40:30;;;;;;;12.68;6.68;;;26.70;78.00;;;;;;5124268;27;20049;-48
2022/09/06 09:43:08;;;;;;;7.28;5.30;;;26.70;78.00;;;;;;5127689;27;20085;-46
2022/09/06 09:45:35;;;;;;;7.75;4.63;;;26.80;77.20;;;;;;5133480;27;20431;-44
2022/09/06 09:48:15;;;;;;;6.82;4.57;;;26.90;77.70;;;;;;5115989;27;20075;-41
2022/09/06 09:50:42;;;;;;;8.05;5.25;;;27.00;75.70;;;;;;5115699;27;20055;-45
2022/09/06 09:53:09;;;;;;;6.85;4.90;;;27.00;75.20;;;;;;5133894;27;20503;-45
2022/09/06 09:55:37;;;;;;;7.72;4.82;;;27.20;74.80;;;;;;5129026;27;20139;-45
2022/09/06 09:58:04;;;;;;;8.20;4.97;;;27.20;74.30;;;;;;5113317;28;20082;-45
2022/09/06 10:00:34;;;;;;;9.85;4.47;;;27.30;74.00;;;;;;5118319;27;20049;-45
2022/09/06 10:03:02;;;;;;;6.05;4.20;;;27.40;74.50;;;;;;5132129;27;20130;-36
2022/09/06 10:05:29;;;;;;;8.32;4.93;;;27.50;74.40;;;;;;5131174;27;20438;-43
2022/09/06 10:07:56;;;;;;;5.80;4.55;;;27.70;74.10;;;;;;5133640;27;20439;-46
2022/09/06 10:10:24;;;;;;;6.07;5.22;;;27.80;73.70;;;;;;5111476;28;20051;-44
2022/09/06 10:13:06;;;;;;;11.30;5.22;;;27.80;73.00;;;;;;5105177;27;20082;-43
2022/09/06 10:15:33;;;;;;;7.38;5.10;;;27.80;72.40;;;;;;5132968;27;20126;-48
2022/09/06 10:18:00;;;;;;;9.85;5.40;;;27.80;73.40;;;;;;5130446;27;20184;-44
2022/09/06 10:20:32;;;;;;;10.57;5.85;;;27.90;73.60;;;;;;5121698;27;20085;-48
2022/09/06 10:23:01;;;;;;;13.90;4.63;;;28.10;72.90;;;;;;5132393;27;20470;-43
2022/09/06 10:25:39;;;;;;;10.13;4.80;;;28.10;71.80;;;;;;5133504;27;20054;-43
2022/09/06 10:28:29;;;;;;;7.78;4.70;;;28.30;70.80;;;;;;5108357;27;20063;-44
2022/09/06 10:31:34;;;;;;;8.88;5.07;;;28.30;71.50;;;;;;5115085;27;20092;-45
2022/09/06 10:34:15;;;;;;;8.50;4.90;;;28.30;71.50;;;;;;5129793;27;20361;-45
2022/09/06 10:36:45;;;;;;;6.82;4.13;;;28.40;70.70;;;;;;5116363;27;20152;-45
2022/09/06 10:39:23;;;;;;;11.73;4.85;;;28.50;70.60;;;;;;5112281;27;20074;-49
2022/09/06 10:42:01;;;;;;;8.68;5.13;;;28.70;69.50;;;;;;5126710;27;20115;-47
2022/09/06 10:44:37;;;;;;;10.38;5.63;;;28.90;70.40;;;;;;5113483;28;20131;-42
2022/09/06 10:47:08;;;;;;;9.65;5.53;;;29.00;69.20;;;;;;5108676;27;20120;-45
2022/09/06 10:49:35;;;;;;;12.43;6.43;;;29.00;68.00;;;;;;5130759;27;20126;-41
2022/09/06 10:52:03;;;;;;;9.45;7.45;;;29.00;68.90;;;;;;5116470;27;20065;-45
2022/09/06 10:54:29;;;;;;;11.75;7.00;;;29.00;69.50;;;;;;5125327;27;20123;-46
2022/09/06 10:56:57;;;;;;;9.93;6.97;;;29.10;70.50;;;;;;5114876;27;20134;-47
2022/09/06 10:59:26;;;;;;;10.82;8.45;;;29.10;70.40;;;;;;5114925;27;20047;-47
2022/09/06 11:02:01;;;;;;;8.80;6.82;;;29.00;69.80;;;;;;5132730;27;20126;-43
2022/09/06 11:04:30;;;;;;;10.48;6.00;;;29.00;70.40;;;;;;5132847;27;20178;-43
2022/09/06 11:06:59;;;;;;;10.45;8.30;;;29.10;71.10;;;;;;5114453;27;20043;-46
2022/09/06 11:09:27;;;;;;;8.18;7.20;;;29.20;70.00;;;;;;5131145;27;20047;-48
2022/09/06 11:11:58;;;;;;;8.90;6.35;;;29.30;69.80;;;;;;5132668;28;20566;-46
2022/09/06 11:14:25;;;;;;;12.32;7.57;;;29.40;69.10;;;;;;5132913;28;20134;-47
2022/09/06 11:16:53;;;;;;;10.95;6.63;;;29.40;69.00;;;;;;5131830;28;20039;-44
2022/09/06 11:19:22;;;;;;;8.85;6.63;;;29.40;68.90;;;;;;5132585;28;20475;-42
2022/09/06 11:22:11;;;;;;;11.23;5.97;;;29.60;68.50;;;;;;5114578;28;20074;-47
2022/09/06 11:24:46;;;;;;;8.75;6.38;;;29.70;68.20;;;;;;5132791;28;20078;-49
2022/09/06 11:27:13;;;;;;;12.27;6.05;;;29.80;67.60;;;;;;5128012;28;20031;-46
2022/09/06 11:29:41;;;;;;;7.47;6.38;;;29.80;67.70;;;;;;5128740;28;20099;-45
2022/09/06 11:32:31;;;;;;;7.50;6.80;;;30.00;67.20;;;;;;5121766;28;20054;-45
2022/09/06 11:35:01;;;;;;;8.18;6.03;;;30.00;66.90;;;;;;5098535;28;20093;-49
2022/09/06 11:37:31;;;;;;;8.93;6.55;;;29.90;66.70;;;;;;5098069;28;20054;-46
2022/09/06 11:40:06;;;;;;;10.90;7.40;;;29.90;66.40;;;;;;5101146;27;20043;-45
2022/09/06 11:42:41;;;;;;;10.30;6.07;;;29.90;65.60;;;;;;5136478;27;20039;-46
2022/09/06 11:45:20;;;;;;;6.90;6.20;;;29.90;66.50;;;;;;5135481;27;20035;-47
2022/09/06 11:47:47;;;;;;;7.20;6.05;;;30.00;66.00;;;;;;5136711;27;20131;-48
2022/09/06 11:51:00;;;;;;;8.82;5.45;;;30.00;66.00;;;;;;5136612;27;20039;-47
2022/09/06 11:53:27;;;;;;;9.70;5.40;;;30.10;66.30;;;;;;5134411;27;20126;-49
2022/09/06 11:56:11;;;;;;;7.05;5.85;;;30.10;64.90;;;;;;5134754;27;20108;-45
2022/09/06 11:58:47;;;;;;;8.98;6.35;;;30.20;64.30;;;;;;5133404;27;20041;-46
2022/09/06 12:01:33;;;;;;;7.03;4.95;;;30.20;64.60;;;;;;5120732;27;20447;-45
2022/09/06 12:04:01;;;;;;;5.85;5.22;;;30.20;63.60;;;;;;5115854;27;20082;-47
2022/09/06 12:06:30;;;;;;;6.45;4.93;;;30.20;64.00;;;;;;5115846;27;20051;-47
2022/09/06 12:08:58;;;;;;;7.13;5.13;;;30.20;63.90;;;;;;5115630;27;20047;-49
2022/09/06 12:11:33;;;;;;;6.07;4.28;;;30.30;64.00;;;;;;5115915;28;20079;-49
2022/09/06 12:14:02;;;;;;;13.13;5.78;;;30.40;64.10;;;;;;5123128;27;20100;-45
2022/09/06 12:17:07;;;;;;;8.50;4.95;;;30.50;63.30;;;;;;5117784;27;20043;-45
2022/09/06 12:19:42;;;;;;;6.10;4.50;;;30.50;62.50;;;;;;5135316;27;20084;-48
2022/09/06 12:23:00;;;;;;;7.43;4.80;;;30.40;62.30;;;;;;5134705;27;20043;-45
2022/09/06 12:25:51;;;;;;;7.30;3.90;;;30.40;62.10;;;;;;5047033;28;20103;-44
2022/09/06 12:28:25;;;;;;;7.22;4.35;;;30.50;62.70;;;;;;5051127;28;20456;-49
2022/09/06 12:30:52;;;;;;;6.45;4.60;;;30.60;62.30;;;;;;5116383;27;20482;-42
2022/09/06 12:33:24;;;;;;;7.75;3.35;;;30.50;61.50;;;;;;5135820;27;20159;-50
2022/09/06 12:35:50;;;;;;;7.30;4.35;;;30.60;62.20;;;;;;5135150;27;20082;-41
2022/09/06 12:38:21;;;;;;;7.03;4.32;;;30.70;62.00;;;;;;5113871;28;20051;-41
2022/09/06 12:40:50;;;;;;;;;;;30.80;61.90;;;;;;5124753;27;20126;-42
2022/09/06 12:43:18;;;;;;;5.25;3.70;;;31.00;62.40;;;;;;5134450;27;19998;-44
2022/09/06 12:45:45;;;;;;;10.82;3.92;;;31.00;61.20;;;;;;5111953;27;20146;-44
2022/09/06 12:48:15;;;;;;;4.75;3.30;;;30.90;60.40;;;;;;5125907;27;20141;-42
2022/09/06 12:50:43;;;;;;;6.10;3.53;;;30.70;61.10;;;;;;5131968;27;20043;-46
2022/09/06 12:53:23;;;;;;;7.68;3.42;;;30.80;60.70;;;;;;5136100;27;20047;-44